Time;durP1;ratioP1;P1;durP2;ratioP2;P2;SDS_P1;SDS_P2;PMS_P1;PMS_P2;Temp;Humidity;BMP_temperature;BMP_pressure;BME280_temperature;BME280_humidity;BME280_pressure;Samples;Min_cycle;Max_cycle;Signal;HPM_P1;HPM_P2
2024/02/27 00:02:12;;;;;;;12.25;6.45;;;;;;;-148.99;100.00;63224.25;5047902;28;20042;-68
2024/02/27 00:04:41;;;;;;;13.20;6.88;;;;;;;-148.99;100.00;63224.25;5047474;28;20360;-70
2024/02/27 00:07:07;;;;;;;11.50;6.18;;;;;;;-148.99;100.00;63224.25;5030797;28;20436;-69
2024/02/27 00:09:32;;;;;;;14.00;6.45;;;;;;;-148.99;100.00;63224.25;5046932;28;20032;-69
2024/02/27 00:11:58;;;;;;;18.60;6.50;;;;;;;-148.99;100.00;63224.25;5048639;28;20075;-70
2024/02/27 00:14:23;;;;;;;14.60;6.82;;;;;;;-148.99;100.00;63224.25;5047052;28;20145;-70
2024/02/27 00:16:49;;;;;;;14.77;6.35;;;;;;;-148.99;100.00;63224.25;5048073;28;20025;-71
2024/02/27 00:19:14;;;;;;;11.70;6.25;;;;;;;-148.99;100.00;63224.25;5048462;28;20057;-69
2024/02/27 00:21:40;;;;;;;15.52;5.90;;;;;;;-148.99;100.00;63224.25;5047685;28;20030;-71
2024/02/27 00:24:05;;;;;;;11.70;6.78;;;;;;;-148.99;100.00;63224.25;5048426;28;20062;-69
2024/02/27 00:26:31;;;;;;;13.52;6.53;;;;;;;-148.99;100.00;63224.25;5047522;28;20041;-69
2024/02/27 00:28:57;;;;;;;12.32;6.18;;;;;;;-148.99;100.00;63224.25;5048726;28;20025;-70
2024/02/27 00:31:22;;;;;;;17.65;6.40;;;;;;;-148.99;100.00;63224.25;5049345;28;20047;-71
2024/02/27 00:33:48;;;;;;;18.35;8.05;;;;;;;-148.99;100.00;63224.25;5051324;27;20022;-71
2024/02/27 00:36:13;;;;;;;13.18;6.43;;;;;;;-148.99;100.00;63224.25;5051940;28;20040;-71
2024/02/27 00:38:39;;;;;;;13.35;6.68;;;;;;;-148.99;100.00;63224.25;5051796;28;20037;-70
2024/02/27 00:41:04;;;;;;;20.30;6.95;;;;;;;-148.99;100.00;63224.25;5051571;28;20035;-71
2024/02/27 00:43:31;;;;;;;14.05;7.32;;;;;;;-148.99;100.00;63224.25;5051153;28;20025;-70
2024/02/27 00:45:56;;;;;;;14.52;6.78;;;;;;;-148.99;100.00;63224.25;5052016;28;20029;-71
2024/02/27 00:48:22;;;;;;;16.73;6.65;;;;;;;-148.99;100.00;63224.25;5051062;28;20040;-69
2024/02/27 00:50:49;;;;;;;16.40;6.63;;;;;;;-148.99;100.00;63224.25;5051632;28;20033;-71
2024/02/27 00:53:16;;;;;;;12.55;6.65;;;;;;;-148.99;100.00;63224.25;5052317;27;20037;-71
2024/02/27 00:55:42;;;;;;;15.38;7.28;;;;;;;-148.99;100.00;63224.25;5052638;28;20045;-71
2024/02/27 00:58:10;;;;;;;14.30;6.65;;;;;;;-148.99;100.00;63224.25;5051655;28;20029;-62
2024/02/27 01:00:36;;;;;;;14.25;7.07;;;;;;;-148.99;100.00;63224.25;5051073;28;20132;-70
2024/02/27 01:03:01;;;;;;;13.68;7.25;;;;;;;-148.99;100.00;63224.25;5050990;28;20512;-71
2024/02/27 01:05:27;;;;;;;15.32;6.70;;;;;;;-148.99;100.00;63224.25;5051634;28;20033;-71
2024/02/27 01:07:52;;;;;;;13.45;7.30;;;;;;;-148.99;100.00;63224.25;5051521;28;20060;-71
2024/02/27 01:10:18;;;;;;;11.70;6.22;;;;;;;-148.99;100.00;63224.25;5050441;28;20096;-72
2024/02/27 01:12:43;;;;;;;12.35;6.47;;;;;;;-148.99;100.00;63224.25;5050345;28;20017;-72
2024/02/27 01:15:09;;;;;;;17.33;7.10;;;;;;;-148.99;100.00;63224.25;5051396;28;20033;-66
2024/02/27 01:17:35;;;;;;;14.38;6.22;;;;;;;-148.99;100.00;63224.25;5050815;28;20025;-71
2024/02/27 01:20:00;;;;;;;13.73;7.40;;;;;;;-148.99;100.00;63224.25;5050653;28;20084;-68
2024/02/27 01:22:30;;;;;;;14.40;6.88;;;;;;;-148.99;100.00;63224.25;5050160;28;20144;-70
2024/02/27 01:24:57;;;;;;;13.80;6.70;;;;;;;-148.99;100.00;63224.25;5051073;28;20349;-70
2024/02/27 01:27:24;;;;;;;15.50;7.07;;;;;;;-148.99;100.00;63224.25;5050730;28;20502;-71
2024/02/27 01:29:50;;;;;;;13.43;6.70;;;;;;;-148.99;100.00;63224.25;5050499;28;20065;-70
2024/02/27 01:32:16;;;;;;;13.77;7.25;;;;;;;-148.99;100.00;63224.25;5050334;28;20029;-71
2024/02/27 01:34:42;;;;;;;13.32;6.20;;;;;;;-148.99;100.00;63224.25;5050560;28;20052;-71
2024/02/27 01:37:07;;;;;;;17.20;7.30;;;;;;;-148.99;100.00;63224.25;5050093;28;20025;-69
2024/02/27 01:39:33;;;;;;;16.35;7.13;;;;;;;-148.99;100.00;63224.25;5050203;28;20078;-71
2024/02/27 01:41:59;;;;;;;14.60;6.72;;;;;;;-148.99;100.00;63224.25;5049416;28;20029;-68
2024/02/27 01:44:26;;;;;;;16.85;7.18;;;;;;;-148.99;100.00;63224.25;5049466;28;20441;-70
2024/02/27 01:46:51;;;;;;;14.18;6.82;;;;;;;-148.99;100.00;63224.25;5032481;28;20033;-70
2024/02/27 01:49:17;;;;;;;11.52;6.75;;;;;;;-148.99;100.00;63224.25;5050316;28;20040;-71
2024/02/27 01:51:46;;;;;;;12.50;6.63;;;;;;;-148.99;100.00;63224.25;5049889;28;20539;-69
2024/02/27 01:54:19;;;;;;;23.08;6.93;;;;;;;-148.99;100.00;63224.25;5050369;27;20037;-70
2024/02/27 01:56:46;;;;;;;14.93;6.97;;;;;;;-148.99;100.00;63224.25;5048247;28;20567;-71
2024/02/27 01:59:12;;;;;;;15.68;7.03;;;;;;;-148.99;100.00;63224.25;5041321;28;20044;-67
2024/02/27 02:01:39;;;;;;;15.02;7.00;;;;;;;-148.99;100.00;63224.25;5030666;28;20357;-71
2024/02/27 02:04:07;;;;;;;13.10;7.22;;;;;;;-148.99;100.00;63224.25;5030170;28;20098;-71
2024/02/27 02:06:34;;;;;;;17.27;7.80;;;;;;;-148.99;100.00;63224.25;5030515;28;20044;-69
2024/02/27 02:08:59;;;;;;;14.65;7.47;;;;;;;-148.99;100.00;63224.25;5030480;28;20033;-68
2024/02/27 02:11:25;;;;;;;14.80;7.63;;;;;;;-148.99;100.00;63224.25;5039653;28;20100;-69
2024/02/27 02:13:51;;;;;;;16.05;7.20;;;;;;;-148.99;100.00;63224.25;5049981;28;20072;-69
2024/02/27 02:16:16;;;;;;;13.20;6.82;;;;;;;-148.99;100.00;63224.25;5050089;28;20036;-69
2024/02/27 02:18:42;;;;;;;13.30;6.88;;;;;;;-148.99;100.00;63224.25;5049246;28;20045;-63
2024/02/27 02:21:08;;;;;;;13.57;7.00;;;;;;;-148.99;100.00;63224.25;5048534;28;20036;-67
2024/02/27 02:23:33;;;;;;;13.82;6.88;;;;;;;-148.99;100.00;63224.25;5049368;28;20036;-69
2024/02/27 02:26:00;;;;;;;16.33;7.07;;;;;;;-148.99;100.00;63224.25;5049307;28;20047;-67
2024/02/27 02:28:26;;;;;;;14.50;7.10;;;;;;;-148.99;100.00;63224.25;5048866;28;20116;-69
2024/02/27 02:30:52;;;;;;;13.85;7.57;;;;;;;-148.99;100.00;63224.25;5049655;28;20033;-68
2024/02/27 02:33:17;;;;;;;12.50;7.00;;;;;;;-148.99;100.00;63224.25;5049794;28;20078;-69
2024/02/27 02:35:46;;;;;;;17.90;7.07;;;;;;;-148.99;100.00;63224.25;5048862;28;20021;-59
2024/02/27 02:38:12;;;;;;;18.08;7.72;;;;;;;-148.99;100.00;63224.25;5049301;28;20056;-69
2024/02/27 02:40:38;;;;;;;17.27;7.35;;;;;;;-148.99;100.00;63224.25;5049816;28;20112;-69
2024/02/27 02:43:03;;;;;;;12.95;6.82;;;;;;;-148.99;100.00;63224.25;5049779;28;20047;-69
2024/02/27 02:45:29;;;;;;;14.70;7.47;;;;;;;-148.99;100.00;63224.25;5049143;28;20072;-65
2024/02/27 02:47:54;;;;;;;15.07;7.82;;;;;;;-148.99;100.00;63224.25;5048631;28;20394;-68
2024/02/27 02:50:20;;;;;;;14.98;7.55;;;;;;;-148.99;100.00;63224.25;5049344;28;20033;-67
2024/02/27 02:52:46;;;;;;;15.98;7.40;;;;;;;-148.99;100.00;63224.25;5049631;28;20049;-68
2024/02/27 02:55:12;;;;;;;17.77;7.68;;;;;;;-148.99;100.00;63224.25;5049016;28;20369;-69
2024/02/27 02:57:38;;;;;;;13.43;6.25;;;;;;;-148.99;100.00;63224.25;5049195;28;20032;-69
2024/02/27 03:00:04;;;;;;;16.45;7.45;;;;;;;-148.99;100.00;63224.25;5049577;28;20040;-71
2024/02/27 03:02:33;;;;;;;14.25;6.60;;;;;;;-148.99;100.00;63224.25;5048488;28;20107;-72
2024/02/27 03:04:58;;;;;;;14.00;6.95;;;;;;;-148.99;100.00;63224.25;5048135;28;20029;-71
2024/02/27 03:07:25;;;;;;;17.65;7.05;;;;;;;-148.99;100.00;63224.25;5048509;28;20077;-73
2024/02/27 03:09:51;;;;;;;13.32;6.38;;;;;;;-148.99;100.00;63224.25;5049575;28;20033;-72
2024/02/27 03:12:17;;;;;;;10.63;6.03;;;;;;;-148.99;100.00;63224.25;5049194;28;20028;-70
2024/02/27 03:14:46;;;;;;;15.30;6.30;;;;;;;-148.99;100.00;63224.25;5049109;28;20065;-72
2024/02/27 03:17:16;;;;;;;13.63;6.40;;;;;;;-148.99;100.00;63224.25;5047833;28;20449;-72
2024/02/27 03:19:42;;;;;;;16.02;6.28;;;;;;;-148.99;100.00;63224.25;5048886;28;20044;-74
2024/02/27 03:22:09;;;;;;;12.95;6.35;;;;;;;-148.99;100.00;63224.25;5049718;28;20334;-71
2024/02/27 03:24:38;;;;;;;11.88;6.28;;;;;;;-148.99;100.00;63224.25;5048787;28;20033;-72
2024/02/27 03:27:05;;;;;;;15.63;6.45;;;;;;;-148.99;100.00;63224.25;5048313;28;20033;-72
2024/02/27 03:29:31;;;;;;;12.77;6.53;;;;;;;-148.99;100.00;63224.25;5049135;28;20480;-70
2024/02/27 03:31:57;;;;;;;13.90;6.63;;;;;;;-148.99;100.00;63224.25;5049069;28;20037;-72
2024/02/27 03:34:25;;;;;;;12.90;6.45;;;;;;;-148.99;100.00;63224.25;5048412;28;20028;-69
2024/02/27 03:36:50;;;;;;;12.02;6.35;;;;;;;-148.99;100.00;63224.25;5048611;28;20071;-74
2024/02/27 03:39:16;;;;;;;13.15;6.35;;;;;;;-148.99;100.00;63224.25;5048967;28;20053;-64
2024/02/27 03:41:41;;;;;;;11.50;6.00;;;;;;;-148.99;100.00;63224.25;5048971;28;20449;-73
2024/02/27 03:44:07;;;;;;;13.02;5.85;;;;;;;-148.99;100.00;63224.25;5048858;28;20040;-74
2024/02/27 03:46:32;;;;;;;12.02;6.45;;;;;;;-148.99;100.00;63224.25;5048249;28;20044;-73
2024/02/27 03:48:58;;;;;;;14.10;6.05;;;;;;;-148.99;100.00;63224.25;5048842;28;20025;-73
2024/02/27 03:51:23;;;;;;;13.68;6.13;;;;;;;-148.99;100.00;63224.25;5048248;28;20068;-73
2024/02/27 03:53:49;;;;;;;12.57;6.18;;;;;;;-148.99;100.00;63224.25;5048459;28;20453;-72
2024/02/27 03:56:14;;;;;;;12.02;6.47;;;;;;;-148.99;100.00;63224.25;5049353;28;20120;-75
2024/02/27 03:58:40;;;;;;;12.05;6.75;;;;;;;-148.99;100.00;63224.25;5048080;27;20043;-72
2024/02/27 04:01:06;;;;;;;14.93;6.25;;;;;;;-148.99;100.00;63224.25;5048333;28;20104;-73
2024/02/27 04:03:31;;;;;;;12.52;6.07;;;;;;;-148.99;100.00;63224.25;5048524;28;20448;-72
2024/02/27 04:05:57;;;;;;;15.23;6.60;;;;;;;-148.99;100.00;63224.25;5047766;28;20041;-73
2024/02/27 04:08:22;;;;;;;11.93;6.88;;;;;;;-148.99;100.00;63224.25;5051947;28;20055;-68
2024/02/27 04:10:48;;;;;;;12.77;6.68;;;;;;;-148.99;100.00;63224.25;5035069;28;20029;-64
2024/02/27 04:13:13;;;;;;;13.43;6.90;;;;;;;-148.99;100.00;63224.25;5052539;28;20067;-73
2024/02/27 04:15:39;;;;;;;13.55;6.07;;;;;;;-148.99;100.00;63224.25;5051696;28;20093;-71
2024/02/27 04:18:05;;;;;;;14.82;6.35;;;;;;;-148.99;100.00;63224.25;5052337;28;20036;-72
2024/02/27 04:20:31;;;;;;;14.60;6.95;;;;;;;-148.99;100.00;63224.25;5051848;28;20033;-71
2024/02/27 04:22:56;;;;;;;16.83;6.68;;;;;;;-148.99;100.00;63224.25;5051436;28;20181;-72
2024/02/27 04:25:22;;;;;;;14.05;7.03;;;;;;;-148.99;100.00;63224.25;5051526;28;20127;-73
2024/02/27 04:27:48;;;;;;;14.02;6.90;;;;;;;-148.99;100.00;63224.25;5052714;28;20070;-73
2024/02/27 04:30:14;;;;;;;13.32;6.25;;;;;;;-148.99;100.00;63224.25;5051503;28;20081;-71
2024/02/27 04:32:39;;;;;;;16.40;6.95;;;;;;;-148.99;100.00;63224.25;5031460;28;20045;-72
2024/02/27 04:35:05;;;;;;;14.88;6.43;;;;;;;-148.99;100.00;63224.25;5031680;28;20033;-73
2024/02/27 04:37:31;;;;;;;11.77;6.35;;;;;;;-148.99;100.00;63224.25;5051242;28;20036;-73
2024/02/27 04:39:57;;;;;;;15.20;6.85;;;;;;;-148.99;100.00;63224.25;5051725;28;20025;-72
2024/02/27 04:42:22;;;;;;;14.88;6.97;;;;;;;-148.99;100.00;63224.25;5050124;28;20029;-68
2024/02/27 04:44:48;;;;;;;14.05;6.18;;;;;;;-148.99;100.00;63224.25;5051895;28;20368;-72
2024/02/27 04:47:13;;;;;;;15.18;6.50;;;;;;;-148.99;100.00;63224.25;5051836;28;20448;-73
2024/02/27 04:49:39;;;;;;;17.77;7.07;;;;;;;-148.99;100.00;63224.25;5050901;28;20029;-73
2024/02/27 04:52:05;;;;;;;17.63;6.65;;;;;;;-148.99;100.00;63224.25;5050441;28;20040;-72
2024/02/27 04:54:31;;;;;;;12.38;6.60;;;;;;;-148.99;100.00;63224.25;5050382;28;20067;-71
2024/02/27 04:56:56;;;;;;;12.93;6.60;;;;;;;-148.99;100.00;63224.25;5050722;28;20116;-71
2024/02/27 04:59:22;;;;;;;16.25;6.82;;;;;;;-148.99;100.00;63224.25;5051297;28;20108;-70
2024/02/27 05:01:48;;;;;;;16.23;6.88;;;;;;;-148.99;100.00;63224.25;5051482;28;20021;-73
2024/02/27 05:04:14;;;;;;;12.02;6.55;;;;;;;-148.99;100.00;63224.25;5051260;28;20044;-72
2024/02/27 05:06:40;;;;;;;13.05;6.75;;;;;;;-148.99;100.00;63224.25;5051022;28;20033;-71
2024/02/27 05:09:07;;;;;;;15.20;7.07;;;;;;;-148.99;100.00;63224.25;5051388;28;20040;-71
2024/02/27 05:11:32;;;;;;;12.07;6.75;;;;;;;-148.99;100.00;63224.25;5050625;28;20060;-71
2024/02/27 05:13:58;;;;;;;13.95;6.20;;;;;;;-148.99;100.00;63224.25;5051022;28;20037;-71
2024/02/27 05:16:24;;;;;;;14.52;7.10;;;;;;;-148.99;100.00;63224.25;5051130;28;20061;-73
2024/02/27 05:18:49;;;;;;;13.73;7.43;;;;;;;-148.99;100.00;63224.25;5051492;28;20120;-73
2024/02/27 05:21:18;;;;;;;13.00;6.95;;;;;;;-148.99;100.00;63224.25;5051028;28;20029;-73
2024/02/27 05:23:44;;;;;;;14.75;7.85;;;;;;;-148.99;100.00;63224.25;5050838;28;20409;-69
2024/02/27 05:26:10;;;;;;;19.92;7.82;;;;;;;-148.99;100.00;63224.25;5050690;28;20041;-66
2024/02/27 05:28:36;;;;;;;13.23;7.05;;;;;;;-148.99;100.00;63224.25;5050486;28;20029;-65
2024/02/27 05:31:19;;;;;;;16.80;7.45;;;;;;;-148.99;100.00;63224.25;5050305;28;20040;-67
2024/02/27 05:33:45;;;;;;;15.55;7.57;;;;;;;-148.99;100.00;63224.25;5050199;28;20025;-67
2024/02/27 05:36:10;;;;;;;14.10;6.88;;;;;;;-148.99;100.00;63224.25;5049376;28;20040;-67
2024/02/27 05:38:36;;;;;;;13.07;7.07;;;;;;;-148.99;100.00;63224.25;5050031;28;20031;-67
2024/02/27 05:41:01;;;;;;;15.40;7.47;;;;;;;-148.99;100.00;63224.25;5050362;28;20029;-65
2024/02/27 05:43:27;;;;;;;14.82;7.10;;;;;;;-148.99;100.00;63224.25;5048914;28;20125;-62
2024/02/27 05:45:52;;;;;;;19.08;7.80;;;;;;;-148.99;100.00;63224.25;5049396;28;20096;-61
2024/02/27 05:48:18;;;;;;;15.63;7.60;;;;;;;-148.99;100.00;63224.25;5050328;28;20100;-60
2024/02/27 05:50:45;;;;;;;17.98;7.38;;;;;;;-148.99;100.00;63224.25;5050194;28;20108;-61
2024/02/27 05:53:11;;;;;;;18.88;7.63;;;;;;;-148.99;100.00;63224.25;5050271;28;20076;-62
2024/02/27 05:55:36;;;;;;;13.60;7.03;;;;;;;-148.99;100.00;63224.25;5049953;28;20079;-60
2024/02/27 05:58:02;;;;;;;15.10;7.63;;;;;;;-148.99;100.00;63224.25;5049746;28;20456;-60
2024/02/27 06:00:28;;;;;;;16.60;7.38;;;;;;;-148.99;100.00;63224.25;5050090;28;20077;-60
2024/02/27 06:02:53;;;;;;;19.70;7.75;;;;;;;-148.99;100.00;63224.25;5049788;28;20372;-70
2024/02/27 06:05:19;;;;;;;16.85;8.75;;;;;;;-148.99;100.00;63224.25;5041912;28;20037;-66
2024/02/27 06:07:45;;;;;;;20.80;8.40;;;;;;;-148.99;100.00;63224.25;5049003;28;20029;-65
2024/02/27 06:10:11;;;;;;;17.58;8.40;;;;;;;-148.99;100.00;63224.25;5049835;28;20033;-63
2024/02/27 06:12:36;;;;;;;19.05;8.05;;;;;;;-148.99;100.00;63224.25;5048317;28;20048;-64
2024/02/27 06:15:03;;;;;;;19.65;7.63;;;;;;;-148.99;100.00;63224.25;5050382;28;20419;-65
2024/02/27 06:17:29;;;;;;;23.00;8.20;;;;;;;-148.99;100.00;63224.25;5049861;28;20113;-62
2024/02/27 06:19:59;;;;;;;18.67;8.77;;;;;;;-148.99;100.00;63224.25;5049787;28;20060;-64
2024/02/27 06:22:25;;;;;;;18.40;8.48;;;;;;;-148.99;100.00;63224.25;5050088;28;20061;-64
2024/02/27 06:24:51;;;;;;;16.35;7.43;;;;;;;-148.99;100.00;63224.25;5050006;28;20436;-62
2024/02/27 06:27:16;;;;;;;17.27;8.23;;;;;;;-148.99;100.00;63224.25;5048488;28;20029;-62
2024/02/27 06:29:42;;;;;;;16.65;8.23;;;;;;;-148.99;100.00;63224.25;5048844;28;20344;-64
2024/02/27 06:32:10;;;;;;;15.60;8.23;;;;;;;-148.99;100.00;63224.25;5050099;28;20345;-65
2024/02/27 06:34:36;;;;;;;15.45;7.70;;;;;;;-148.99;100.00;63224.25;5049776;28;20025;-64
2024/02/27 06:37:02;;;;;;;17.17;7.80;;;;;;;-148.99;100.00;63224.25;5048854;28;20031;-64
2024/02/27 06:39:28;;;;;;;23.55;8.30;;;;;;;-148.99;100.00;63224.25;5049317;28;20035;-64
2024/02/27 06:41:53;;;;;;;19.27;7.82;;;;;;;-148.99;100.00;63224.25;5049544;28;20064;-64
2024/02/27 06:44:19;;;;;;;17.63;7.50;;;;;;;-148.99;100.00;63224.25;5050028;28;20025;-65
2024/02/27 06:46:44;;;;;;;15.30;7.40;;;;;;;-148.99;100.00;63224.25;5048612;28;20081;-66
2024/02/27 06:49:10;;;;;;;15.68;7.15;;;;;;;-148.99;100.00;63224.25;5049292;28;20029;-66
2024/02/27 06:51:38;;;;;;;15.27;7.95;;;;;;;-148.99;100.00;63224.25;5049435;28;20037;-65
2024/02/27 06:54:03;;;;;;;17.88;9.15;;;;;;;-148.99;100.00;63224.25;5049635;28;20045;-66
2024/02/27 06:56:30;;;;;;;17.92;7.43;;;;;;;-148.99;100.00;63224.25;5048369;28;20093;-63
2024/02/27 06:58:56;;;;;;;21.05;8.70;;;;;;;-148.99;100.00;63224.25;5048503;28;20040;-65
2024/02/27 07:01:23;;;;;;;17.90;8.40;;;;;;;-148.99;100.00;63224.25;5049557;27;20029;-64
2024/02/27 07:03:49;;;;;;;19.80;8.07;;;;;;;-148.99;100.00;63224.25;5050047;28;20033;-64
2024/02/27 07:06:15;;;;;;;13.88;7.13;;;;;;;-148.99;100.00;63224.25;5048633;28;20043;-65
2024/02/27 07:08:41;;;;;;;13.60;7.40;;;;;;;-148.99;100.00;63224.25;5048577;28;20116;-64
2024/02/27 07:11:08;;;;;;;14.00;6.72;;;;;;;-148.99;100.00;63224.25;5049310;28;20372;-65
2024/02/27 07:13:34;;;;;;;17.10;8.23;;;;;;;-148.99;100.00;63224.25;5049281;28;20041;-65
2024/02/27 07:15:59;;;;;;;16.63;8.43;;;;;;;-148.99;100.00;63224.25;5044940;28;20116;-66
2024/02/27 07:18:24;;;;;;;18.73;7.90;;;;;;;-148.99;100.00;63224.25;5048910;28;20029;-65
2024/02/27 07:20:50;;;;;;;15.77;8.70;;;;;;;-148.99;100.00;63224.25;5049622;28;20037;-65
2024/02/27 07:23:16;;;;;;;15.90;8.00;;;;;;;-148.99;100.00;63224.25;5049040;28;20036;-65
2024/02/27 07:25:41;;;;;;;15.48;7.70;;;;;;;-148.99;100.00;63224.25;5048369;28;20414;-68
2024/02/27 07:28:07;;;;;;;20.65;7.97;;;;;;;-148.99;100.00;63224.25;5048602;28;20093;-64
2024/02/27 07:30:32;;;;;;;15.98;8.77;;;;;;;-148.99;100.00;63224.25;5048538;28;20336;-67
2024/02/27 07:32:58;;;;;;;19.70;8.88;;;;;;;-148.99;100.00;63224.25;5048595;28;20094;-66
2024/02/27 07:35:23;;;;;;;18.77;10.07;;;;;;;-148.99;100.00;63224.25;5047711;28;20029;-66
2024/02/27 07:37:49;;;;;;;19.70;9.05;;;;;;;-148.99;100.00;63224.25;5048167;28;20128;-66
2024/02/27 07:40:14;;;;;;;15.98;8.27;;;;;;;-148.99;100.00;63224.25;5048595;28;20036;-65
2024/02/27 07:42:40;;;;;;;17.08;8.13;;;;;;;-148.99;100.00;63224.25;5051856;28;20579;-66
2024/02/27 07:45:07;;;;;;;16.33;8.23;;;;;;;-148.99;100.00;63224.25;5051659;28;20044;-68
2024/02/27 07:47:32;;;;;;;18.83;8.90;;;;;;;-148.99;100.00;63224.25;5034039;28;20048;-63
2024/02/27 07:49:58;;;;;;;16.40;8.55;;;;;;;-148.99;100.00;63224.25;5052226;28;20433;-66
2024/02/27 07:52:24;;;;;;;16.40;8.80;;;;;;;-148.99;100.00;63224.25;5051756;28;20747;-64
2024/02/27 07:54:49;;;;;;;14.50;8.30;;;;;;;-148.99;100.00;63224.25;5048429;28;20101;-64
2024/02/27 07:57:15;;;;;;;17.30;9.30;;;;;;;-148.99;100.00;63224.25;5051555;28;20021;-66
2024/02/27 07:59:40;;;;;;;15.95;9.05;;;;;;;-148.99;100.00;63224.25;5051932;28;20061;-66
2024/02/27 08:02:06;;;;;;;18.05;9.40;;;;;;;-148.99;100.00;63224.25;5048531;28;20329;-66
2024/02/27 08:04:31;;;;;;;23.00;9.30;;;;;;;-148.99;100.00;63224.25;5041034;28;20070;-66
2024/02/27 08:06:57;;;;;;;14.07;8.63;;;;;;;-148.99;100.00;63224.25;5040868;28;20439;-67
2024/02/27 08:09:23;;;;;;;18.65;9.00;;;;;;;-148.99;100.00;63224.25;5043969;28;20033;-65
2024/02/27 08:11:49;;;;;;;17.17;9.38;;;;;;;-148.99;100.00;63224.25;5041218;28;20104;-66
2024/02/27 08:14:16;;;;;;;15.75;9.57;;;;;;;-148.99;100.00;63224.25;5040308;28;20032;-66
2024/02/27 08:16:41;;;;;;;16.77;8.90;;;;;;;-148.99;100.00;63224.25;5037995;28;20126;-62
2024/02/27 08:19:07;;;;;;;19.20;9.65;;;;;;;-148.99;100.00;63224.25;5037501;28;20045;-68
2024/02/27 08:21:33;;;;;;;17.75;9.55;;;;;;;-148.99;100.00;63224.25;5044472;28;20036;-70
2024/02/27 08:24:02;;;;;;;19.17;8.73;;;;;;;-148.99;100.00;63224.25;5038926;28;20021;-66
2024/02/27 08:26:28;;;;;;;18.33;9.20;;;;;;;-148.99;100.00;63224.25;5047691;28;20037;-65
2024/02/27 08:28:55;;;;;;;18.63;9.35;;;;;;;-148.99;100.00;63224.25;5047566;28;20041;-66
2024/02/27 08:31:22;;;;;;;17.13;8.25;;;;;;;-148.99;100.00;63224.25;5046870;28;20418;-64
2024/02/27 08:33:48;;;;;;;15.75;8.52;;;;;;;-148.99;100.00;63224.25;5049531;28;20033;-66
2024/02/27 08:36:14;;;;;;;17.13;8.68;;;;;;;-148.99;100.00;63224.25;5044236;28;20029;-65
2024/02/27 08:38:43;;;;;;;14.48;8.93;;;;;;;-148.99;100.00;63224.25;5040362;28;20413;-64
2024/02/27 08:41:09;;;;;;;22.85;8.90;;;;;;;-148.99;100.00;63224.25;5040067;28;20136;-64
2024/02/27 08:43:34;;;;;;;18.55;8.52;;;;;;;-148.99;100.00;63224.25;5037235;28;20584;-64
2024/02/27 08:46:00;;;;;;;20.02;8.60;;;;;;;-148.99;100.00;63224.25;5039106;28;20036;-65
2024/02/27 08:48:25;;;;;;;18.13;8.82;;;;;;;-148.99;100.00;63224.25;5041173;28;20054;-65
2024/02/27 08:50:52;;;;;;;18.27;8.77;;;;;;;-148.99;100.00;63224.25;5039353;28;20135;-63
2024/02/27 08:53:17;;;;;;;19.40;8.82;;;;;;;-148.99;100.00;63224.25;5038899;28;20061;-64
2024/02/27 08:55:43;;;;;;;18.20;8.60;;;;;;;-148.99;100.00;63224.25;5050010;28;20079;-66
2024/02/27 08:58:08;;;;;;;17.23;8.77;;;;;;;-148.99;100.00;63224.25;5131357;27;20396;-67
2024/02/27 09:00:34;;;;;;;20.00;8.50;;;;;;;-148.99;100.00;63224.25;5042449;27;20033;-65
2024/02/27 09:02:59;;;;;;;16.25;8.30;;;;;;;-148.99;100.00;63224.25;5029541;28;20036;-66
2024/02/27 09:05:25;;;;;;;19.58;9.25;;;;;;;-148.99;100.00;63224.25;5043461;27;20025;-64
2024/02/27 09:07:51;;;;;;;15.75;8.82;;;;;;;-148.99;100.00;63224.25;5049886;28;20350;-64
2024/02/27 09:10:17;;;;;;;17.90;9.55;;;;;;;-148.99;100.00;63224.25;5045364;28;20085;-67
2024/02/27 09:12:43;;;;;;;17.98;8.85;;;;;;;-148.99;100.00;63224.25;5050170;27;20524;-66
2024/02/27 09:15:10;;;;;;;17.13;8.75;;;;;;;-148.99;100.00;63224.25;5038424;28;20044;-68
2024/02/27 09:17:36;;;;;;;19.33;9.05;;;;;;;-148.99;100.00;63224.25;5049058;28;20025;-68
2024/02/27 09:20:06;;;;;;;19.15;9.07;;;;;;;-148.99;100.00;63224.25;5046459;28;20085;-68
2024/02/27 09:22:32;;;;;;;23.27;9.18;;;;;;;-148.99;100.00;63224.25;5036439;28;20037;-68
2024/02/27 09:24:58;;;;;;;17.25;8.90;;;;;;;-148.99;100.00;63224.25;5029953;28;20034;-66
2024/02/27 09:27:24;;;;;;;17.85;9.35;;;;;;;-148.99;100.00;63224.25;5029922;28;20475;-66
2024/02/27 09:29:50;;;;;;;16.20;8.45;;;;;;;-148.99;100.00;63224.25;5043152;28;20051;-66
2024/02/27 09:32:21;;;;;;;21.13;9.80;;;;;;;-148.99;100.00;63224.25;5048656;28;20025;-67
2024/02/27 09:34:49;;;;;;;16.10;9.07;;;;;;;-148.99;100.00;63224.25;5047453;28;20025;-66
2024/02/27 09:37:15;;;;;;;21.98;9.45;;;;;;;-148.99;100.00;63224.25;5038881;28;20170;-71
2024/02/27 09:39:41;;;;;;;19.75;9.77;;;;;;;-148.99;100.00;63224.25;5049608;28;20416;-67
2024/02/27 09:42:12;;;;;;;17.17;9.30;;;;;;;-148.99;100.00;63224.25;5049794;28;20483;-66
2024/02/27 09:44:40;;;;;;;19.60;9.85;;;;;;;-148.99;100.00;63224.25;5048995;28;20021;-66
2024/02/27 09:47:07;;;;;;;19.15;9.27;;;;;;;-148.99;100.00;63224.25;5038824;28;20373;-67
2024/02/27 09:49:41;;;;;;;18.02;9.20;;;;;;;-148.99;100.00;63224.25;5049654;28;20362;-67
2024/02/27 09:52:10;;;;;;;16.65;9.80;;;;;;;-148.99;100.00;63224.25;5049381;28;20132;-68
2024/02/27 09:54:37;;;;;;;17.92;10.13;;;;;;;-148.99;100.00;63224.25;5048519;28;20066;-66
2024/02/27 09:57:04;;;;;;;17.95;10.50;;;;;;;-148.99;100.00;63224.25;5048373;28;20464;-65
2024/02/27 09:59:30;;;;;;;16.27;9.73;;;;;;;-148.99;100.00;63224.25;5049327;28;20044;-69
2024/02/27 10:02:16;;;;;;;18.25;10.45;;;;;;;-148.99;100.00;63224.25;5048013;28;20515;-68
2024/02/27 10:04:42;;;;;;;22.23;11.75;;;;;;;-148.99;100.00;63224.25;5048537;28;20093;-66
2024/02/27 10:07:10;;;;;;;20.15;11.00;;;;;;;-148.99;100.00;63224.25;5048408;27;20040;-67
2024/02/27 10:09:38;;;;;;;22.27;10.80;;;;;;;-148.99;100.00;63224.25;5049095;28;20445;-68
2024/02/27 10:12:05;;;;;;;26.80;12.32;;;;;;;-148.99;100.00;63224.25;5049239;28;20029;-67
2024/02/27 10:14:37;;;;;;;23.20;10.52;;;;;;;-148.99;100.00;63224.25;5049328;28;20033;-69
2024/02/27 10:17:06;;;;;;;21.67;11.38;;;;;;;-148.99;100.00;63224.25;5048289;28;20547;-68
2024/02/27 10:19:34;;;;;;;22.20;11.15;;;;;;;-148.99;100.00;63224.25;5044910;28;20445;-67
2024/02/27 10:22:00;;;;;;;29.13;11.88;;;;;;;-148.99;100.00;63224.25;5049216;28;20040;-66
2024/02/27 10:24:29;;;;;;;22.00;11.07;;;;;;;-148.99;100.00;63224.25;5048438;28;20060;-68
2024/02/27 10:27:02;;;;;;;22.75;10.48;;;;;;;-148.99;100.00;63224.25;5048407;28;20025;-69
2024/02/27 10:29:29;;;;;;;21.58;10.88;;;;;;;-148.99;100.00;63224.25;5048920;28;20500;-68
2024/02/27 10:31:55;;;;;;;19.08;10.73;;;;;;;-148.99;100.00;63224.25;5048500;28;20145;-68
2024/02/27 10:34:24;;;;;;;20.52;11.05;;;;;;;-148.99;100.00;63224.25;5047615;28;20120;-70
2024/02/27 10:37:10;;;;;;;26.17;11.43;;;;;;;-148.99;100.00;63224.25;5049528;28;20025;-69
2024/02/27 10:39:36;;;;;;;19.80;11.38;;;;;;;-148.99;100.00;63224.25;5049248;28;20162;-68
2024/02/27 10:42:01;;;;;;;18.90;10.98;;;;;;;-148.99;100.00;63224.25;5044407;28;20108;-67
2024/02/27 10:44:28;;;;;;;24.00;11.95;;;;;;;-148.99;100.00;63224.25;5029893;28;20026;-70
2024/02/27 10:46:57;;;;;;;26.83;11.95;;;;;;;-148.99;100.00;63224.25;5036175;28;20045;-68
2024/02/27 10:49:23;;;;;;;28.45;12.60;;;;;;;-148.99;100.00;63224.25;5034221;28;20037;-67
2024/02/27 10:51:50;;;;;;;23.90;12.95;;;;;;;-148.99;100.00;63224.25;5029515;28;20076;-70
2024/02/27 10:54:17;;;;;;;27.63;12.77;;;;;;;-148.99;100.00;63224.25;5029729;28;20037;-70
2024/02/27 10:56:46;;;;;;;26.98;13.50;;;;;;;-148.99;100.00;63224.25;5038670;28;20041;-69
2024/02/27 10:59:12;;;;;;;25.33;12.68;;;;;;;-148.99;100.00;63224.25;5048545;28;20463;-69